createdAt,value
2023-04-18T00:01:01.900Z,98546.06
2023-04-18T00:06:03.909Z,98543.59
2023-04-18T00:11:05.770Z,98541.97
2023-04-18T00:16:08.743Z,98541.16
2023-04-18T00:21:10.683Z,98540.06
2023-04-18T00:26:12.752Z,98542.16
2023-04-18T00:31:14.916Z,98545.25
2023-04-18T00:36:16.741Z,98538.44
2023-04-18T00:41:21.886Z,98532.34
2023-04-18T00:46:23.808Z,98536.75
2023-04-18T00:51:26.348Z,98535.81
2023-04-18T00:56:29.462Z,98531.59
2023-04-18T01:01:33.815Z,98525.31
2023-04-18T01:06:36.815Z,98524.72
2023-04-18T01:11:38.694Z,98527.88
2023-04-18T01:16:40.522Z,98527.03
2023-04-18T01:21:43.993Z,98526.38
2023-04-18T01:26:48.247Z,98529.38
2023-04-18T01:31:50.235Z,98526.38
2023-04-18T01:36:52.121Z,98525.69
2023-04-18T01:41:53.930Z,98533.53
2023-04-18T01:46:55.890Z,98532.47
2023-04-18T01:51:57.837Z,98529.63
2023-04-18T01:56:59.630Z,98528.88
2023-04-18T02:02:02.616Z,98523.28
2023-04-18T02:07:04.791Z,98515.91
2023-04-18T02:12:06.874Z,98516.72
2023-04-18T02:17:08.822Z,98517.28
2023-04-18T02:22:11.251Z,98511.47
2023-04-18T02:27:13.121Z,98514.47
2023-04-18T02:32:15.077Z,98520.22
2023-04-18T02:37:19.442Z,98513.97
2023-04-18T02:42:21.310Z,98509.75
2023-04-18T02:47:23.131Z,98520.50
2023-04-18T02:52:25.709Z,98513.06
2023-04-18T02:57:27.587Z,98511.69
2023-04-18T03:02:47.957Z,98523.41
2023-04-18T03:08:03.721Z,98524.78
2023-04-18T03:13:06.255Z,98522.47
2023-04-18T03:18:08.714Z,98521.38
2023-04-18T03:23:13.507Z,98518.66
2023-04-18T03:28:15.549Z,98519.09
2023-04-18T03:33:17.451Z,98525.13
2023-04-18T03:38:21.448Z,98518.03
2023-04-18T03:43:24.118Z,98520.50
2023-04-18T03:48:27.127Z,98517.66
2023-04-18T03:53:30.097Z,98520.53
2023-04-18T03:58:32.066Z,98517.03
2023-04-18T04:03:34.578Z,98514.56
2023-04-18T04:08:36.685Z,98525.72
2023-04-18T04:13:38.785Z,98520.31
2023-04-18T04:18:42.374Z,98529.25
2023-04-18T04:23:44.350Z,98535.13
2023-04-18T04:28:54.471Z,98540.28
2023-04-18T04:33:59.836Z,98540.97
2023-04-18T04:39:04.258Z,98540.16
2023-04-18T04:44:31.566Z,98542.78
2023-04-18T04:49:34.326Z,98543.69
2023-04-18T04:54:36.396Z,98543.91
2023-04-18T04:59:40.703Z,98548.50
2023-04-18T05:04:42.936Z,98545.69
2023-04-18T05:09:44.905Z,98560.38
2023-04-18T05:14:46.704Z,98556.41
2023-04-18T05:19:48.551Z,98562.75
2023-04-18T05:24:50.370Z,98560.81
2023-04-18T05:29:52.789Z,98562.13
2023-04-18T05:34:54.918Z,98568.09
2023-04-18T05:39:58.699Z,98578.03
2023-04-18T05:45:02.056Z,98574.03
2023-04-18T05:50:04.182Z,98581.44
2023-04-18T05:55:06.641Z,98581.19
2023-04-18T06:00:11.815Z,98587.69
2023-04-18T06:05:16.702Z,98579.72
2023-04-18T06:10:18.764Z,98590.03
2023-04-18T06:15:20.568Z,98590.63
2023-04-18T06:20:23.270Z,98601.09
2023-04-18T06:25:25.964Z,98594.53
2023-04-18T06:30:27.807Z,98611.06
2023-04-18T06:35:31.394Z,98603.38
2023-04-18T06:40:33.337Z,98606.31
2023-04-18T06:45:35.755Z,98613.22
2023-04-18T06:50:37.736Z,98618.38
2023-04-18T06:55:40.835Z,98617.81
2023-04-18T07:00:43.425Z,98624.94
2023-04-18T07:05:45.518Z,98623.09
2023-04-18T07:10:47.363Z,98629.28
2023-04-18T07:15:49.192Z,98627.78
2023-04-18T07:20:51.024Z,98634.44
2023-04-18T07:25:52.902Z,98632.09
2023-04-18T07:30:56.998Z,98634.06
2023-04-18T07:35:59.202Z,98640.38
2023-04-18T07:41:02.143Z,98634.50
2023-04-18T07:46:04.162Z,98636.94
2023-04-18T07:51:06.048Z,98641.34
2023-04-18T07:56:07.871Z,98649.16
2023-04-18T08:01:13.564Z,98650.69
2023-04-18T08:06:16.844Z,98649.53
2023-04-18T08:11:18.680Z,98654.56
2023-04-18T08:16:20.792Z,98648.41
2023-04-18T08:21:22.589Z,98650.22
2023-04-18T08:26:24.572Z,98649.84
2023-04-18T08:31:26.670Z,98653.63
2023-04-18T08:36:28.790Z,98655.91
2023-04-18T08:41:34.319Z,98660.50
2023-04-18T08:46:37.248Z,98659.16
2023-04-18T08:51:40.323Z,98660.84
2023-04-18T08:56:42.331Z,98667.28
2023-04-18T09:01:58.812Z,98665.59
2023-04-18T09:07:01.445Z,98671.06
2023-04-18T09:12:08.134Z,98669.25
2023-04-18T09:17:13.243Z,98676.34
2023-04-18T09:22:16.343Z,98674.13
2023-04-18T09:27:18.822Z,98669.41
2023-04-18T09:32:27.001Z,98664.75
2023-04-18T09:37:29.409Z,98668.75
2023-04-18T09:42:36.677Z,98671.28
2023-04-18T09:47:39.073Z,98673.63
2023-04-18T09:52:42.793Z,98678.28
2023-04-18T09:57:46.634Z,98674.94
2023-04-18T10:03:08.823Z,98675.53
2023-04-18T10:08:12.757Z,98679.25
2023-04-18T10:13:15.203Z,98676.50
2023-04-18T10:18:17.286Z,98669.19
2023-04-18T10:23:34.969Z,98669.31
2023-04-18T10:28:57.522Z,98669.03
2023-04-18T10:39:25.614Z,98669.84
2023-04-18T10:44:27.674Z,98671.84
2023-04-18T10:49:32.893Z,98672.34
2023-04-18T10:54:55.180Z,98673.88
2023-04-18T10:59:57.915Z,98670.09
2023-04-18T11:05:02.220Z,98671.00
2023-04-18T11:10:06.274Z,98673.00
2023-04-18T11:15:14.527Z,98667.69
2023-04-18T11:20:17.146Z,98670.38
2023-04-18T11:25:25.244Z,98670.94
2023-04-18T11:30:28.027Z,98662.19
2023-04-18T11:35:30.039Z,98669.22
2023-04-18T11:40:31.965Z,98661.63
2023-04-18T11:45:33.794Z,98668.75
2023-04-18T11:50:37.248Z,98670.63
2023-04-18T11:55:39.213Z,98671.38
2023-04-18T12:00:43.844Z,98670.19
2023-04-18T12:05:45.810Z,98668.25
2023-04-18T12:10:51.675Z,98669.97
2023-04-18T12:15:54.554Z,98665.19
2023-04-18T12:20:58.604Z,98666.00
2023-04-18T12:26:07.703Z,98674.22
2023-04-18T12:31:09.703Z,98668.66
2023-04-18T12:36:11.773Z,98662.41
2023-04-18T12:41:13.580Z,98664.44
2023-04-18T12:46:15.436Z,98670.31
2023-04-18T12:51:17.301Z,98663.06
2023-04-18T12:56:19.297Z,98665.59
2023-04-18T13:01:21.202Z,98671.56
2023-04-18T13:06:24.558Z,98670.53
2023-04-18T13:11:28.755Z,98672.97
2023-04-18T13:16:31.263Z,98674.44
2023-04-18T13:21:33.099Z,98675.78
2023-04-18T13:26:36.156Z,98675.88
2023-04-18T13:31:38.005Z,98674.13
2023-04-18T13:36:39.898Z,98672.81
2023-04-18T13:41:42.361Z,98668.31
2023-04-18T13:46:44.277Z,98671.44
2023-04-18T13:51:46.671Z,98673.25
2023-04-18T13:56:48.471Z,98678.03
2023-04-18T14:01:51.403Z,98674.88
2023-04-18T14:06:53.313Z,98673.91
2023-04-18T14:11:55.482Z,98669.31
2023-04-18T14:16:57.376Z,98667.53
2023-04-18T14:21:59.167Z,98668.19
2023-04-18T14:27:01.854Z,98673.41
2023-04-18T14:32:03.860Z,98675.09
2023-04-18T14:37:06.310Z,98669.66
2023-04-18T14:42:08.141Z,98673.31
2023-04-18T14:47:10.037Z,98674.69
2023-04-18T14:52:11.893Z,98667.34
2023-04-18T14:57:13.732Z,98674.69
2023-04-18T15:02:15.669Z,98679.59
2023-04-18T15:07:18.185Z,98669.25
2023-04-18T15:12:19.990Z,98679.84
2023-04-18T15:17:21.878Z,98665.59
2023-04-18T15:22:23.699Z,98669.97
2023-04-18T15:27:25.643Z,98667.25
2023-04-18T15:32:27.532Z,98664.38
2023-04-18T15:37:29.330Z,98662.75
2023-04-18T15:42:31.131Z,98660.19
2023-04-18T15:47:34.038Z,98662.34
2023-04-18T15:52:36.614Z,98660.72
2023-04-18T15:57:38.811Z,98662.34
2023-04-18T16:02:40.831Z,98672.59
2023-04-18T16:07:42.977Z,98665.75
2023-04-18T16:12:45.135Z,98663.59
2023-04-18T16:17:46.981Z,98664.69
2023-04-18T16:22:48.965Z,98663.72
2023-04-18T16:27:50.965Z,98662.50
2023-04-18T16:32:53.101Z,98670.66
2023-04-18T16:37:55.031Z,98668.50
2023-04-18T16:42:57.244Z,98671.09
2023-04-18T16:47:59.184Z,98665.78
2023-04-18T16:53:01.724Z,98661.56
2023-04-18T16:58:03.503Z,98665.09
2023-04-18T17:03:07.286Z,98671.66
2023-04-18T17:08:09.127Z,98672.88
2023-04-18T17:13:10.861Z,98672.19
2023-04-18T17:18:12.517Z,98674.88
2023-04-18T17:23:14.245Z,98678.03
2023-04-18T17:28:16.353Z,98675.59
2023-04-18T17:33:18.028Z,98674.78
2023-04-18T17:38:19.646Z,98682.25
2023-04-18T17:43:21.485Z,98676.41
2023-04-18T17:48:23.109Z,98671.34
2023-04-18T17:53:24.741Z,98673.94
2023-04-18T17:58:27.111Z,98680.63
2023-04-18T18:03:28.939Z,98680.50
2023-04-18T18:08:30.780Z,98688.97
2023-04-18T18:13:32.804Z,98691.53
2023-04-18T18:18:34.962Z,98693.16
2023-04-18T18:23:36.580Z,98696.56
2023-04-18T18:28:38.288Z,98699.97
2023-04-18T18:33:39.974Z,98708.44
2023-04-18T18:38:41.857Z,98705.72
2023-04-18T18:43:43.471Z,98710.75
2023-04-18T18:48:45.190Z,98708.03
2023-04-18T18:53:46.912Z,98713.91
2023-04-18T18:58:48.542Z,98722.34
2023-04-18T19:03:50.532Z,98722.22
2023-04-18T19:08:52.258Z,98716.09
2023-04-18T19:13:54.054Z,98717.47
2023-04-18T19:18:55.742Z,98708.91
2023-04-18T19:23:57.351Z,98709.34
2023-04-18T19:28:59.043Z,98713.97
2023-04-18T19:34:01.092Z,98706.44
2023-04-18T19:39:02.756Z,98707.16
2023-04-18T19:44:04.634Z,98704.66
2023-04-18T19:49:06.273Z,98708.06
2023-04-18T19:54:08.012Z,98706.19
2023-04-18T19:59:09.766Z,98704.41
2023-04-18T20:04:11.547Z,98703.34
2023-04-18T20:09:16.868Z,98705.94
2023-04-18T20:14:18.706Z,98706.47
2023-04-18T20:19:20.319Z,98701.19
2023-04-18T20:24:22.040Z,98692.31
2023-04-18T20:29:23.713Z,98705.25
2023-04-18T20:34:25.373Z,98700.06
2023-04-18T20:39:28.025Z,98687.69
2023-04-18T20:44:31.107Z,98690.41
2023-04-18T20:49:35.229Z,98683.72
2023-04-18T20:54:36.838Z,98686.88
2023-04-18T20:59:38.501Z,98693.69
2023-04-18T21:04:40.696Z,98690.84
2023-04-18T21:09:42.408Z,98683.59
2023-04-18T21:14:44.033Z,98686.06
2023-04-18T21:19:46.466Z,98687.41
2023-04-18T21:24:48.103Z,98682.94
2023-04-18T21:29:49.731Z,98675.56
2023-04-18T21:34:51.427Z,98680.34
2023-04-18T21:39:52.992Z,98674.34
2023-04-18T21:44:54.901Z,98667.13
2023-04-18T21:49:56.610Z,98659.75
2023-04-18T21:54:59.210Z,98657.84
2023-04-18T22:00:00.833Z,98660.03
2023-04-18T22:05:02.885Z,98654.59
2023-04-18T22:10:05.853Z,98643.94
2023-04-18T22:15:08.059Z,98641.50
2023-04-18T22:20:11.205Z,98635.09
2023-04-18T22:25:12.844Z,98633.47
2023-04-18T22:30:14.716Z,98626.09
2023-04-18T22:35:17.580Z,98621.44
2023-04-18T22:40:19.324Z,98625.16
2023-04-18T22:45:21.074Z,98624.59
2023-04-18T22:50:22.780Z,98624.84
2023-04-18T22:55:24.463Z,98614.25
2023-04-18T23:00:26.185Z,98611.09
2023-04-18T23:05:28.545Z,98602.50
2023-04-18T23:10:30.362Z,98610.16
2023-04-18T23:15:32.253Z,98603.06
2023-04-18T23:20:34.297Z,98606.47
2023-04-18T23:25:36.217Z,98595.28
2023-04-18T23:30:38.153Z,98596.25
2023-04-18T23:35:39.978Z,98599.25
2023-04-18T23:40:41.792Z,98596.53
2023-04-18T23:45:43.626Z,98582.34
2023-04-18T23:50:50.309Z,98584.94
2023-04-18T23:55:53.709Z,98569.16
